sensor_id;sensor_type;location;lat;lon;timestamp;pressure;altitude;pressure_sealevel;temperature;humidity
54172;BME280;40076;52.354;4.970;2023-03-15T00:00:04;101128.34;;;4.84;100.00
54172;BME280;40076;52.354;4.970;2023-03-15T00:02:31;101132.63;;;4.85;100.00
54172;BME280;40076;52.354;4.970;2023-03-15T00:04:56;101131.81;;;4.84;100.00
54172;BME280;40076;52.354;4.970;2023-03-15T00:07:22;101132.09;;;4.83;100.00
54172;BME280;40076;52.354;4.970;2023-03-15T00:09:51;101138.50;;;4.82;100.00
54172;BME280;40076;52.354;4.970;2023-03-15T00:12:17;101143.06;;;4.81;100.00
54172;BME280;40076;52.354;4.970;2023-03-15T00:14:43;101143.34;;;4.80;100.00
54172;BME280;40076;52.354;4.970;2023-03-15T00:17:08;101143.34;;;4.80;100.00
54172;BME280;40076;52.354;4.970;2023-03-15T00:19:33;101151.38;;;4.80;100.00
54172;BME280;40076;52.354;4.970;2023-03-15T00:21:59;101153.25;;;4.79;100.00
54172;BME280;40076;52.354;4.970;2023-03-15T00:24:24;101152.97;;;4.81;100.00
54172;BME280;40076;52.354;4.970;2023-03-15T00:26:49;101158.31;;;4.81;100.00
54172;BME280;40076;52.354;4.970;2023-03-15T00:29:15;101157.25;;;4.82;100.00
54172;BME280;40076;52.354;4.970;2023-03-15T00:31:40;101160.72;;;4.82;100.00
54172;BME280;40076;52.354;4.970;2023-03-15T00:34:05;101163.41;;;4.82;100.00
54172;BME280;40076;52.354;4.970;2023-03-15T00:36:31;101169.31;;;4.84;100.00
54172;BME280;40076;52.354;4.970;2023-03-15T00:38:56;101171.97;;;4.84;100.00
54172;BME280;40076;52.354;4.970;2023-03-15T00:41:24;101165.81;;;4.84;100.00
54172;BME280;40076;52.354;4.970;2023-03-15T00:43:50;101174.13;;;4.82;100.00
54172;BME280;40076;52.354;4.970;2023-03-15T00:46:16;101172.78;;;4.85;100.00
54172;BME280;40076;52.354;4.970;2023-03-15T00:48:42;101167.44;;;4.85;100.00
54172;BME280;40076;52.354;4.970;2023-03-15T00:51:12;101176.25;;;4.85;100.00
54172;BME280;40076;52.354;4.970;2023-03-15T00:53:40;101177.88;;;4.86;100.00
54172;BME280;40076;52.354;4.970;2023-03-15T00:56:10;101187.78;;;4.86;100.00
54172;BME280;40076;52.354;4.970;2023-03-15T00:58:37;101193.13;;;4.86;100.00
54172;BME280;40076;52.354;4.970;2023-03-15T01:01:16;101200.34;;;4.85;100.00
54172;BME280;40076;52.354;4.970;2023-03-15T01:03:42;101209.19;;;4.86;100.00
54172;BME280;40076;52.354;4.970;2023-03-15T01:06:10;101206.53;;;4.86;100.00
54172;BME280;40076;52.354;4.970;2023-03-15T01:08:36;101210.81;;;4.87;100.00
54172;BME280;40076;52.354;4.970;2023-03-15T01:11:07;101204.91;;;4.85;100.00
54172;BME280;40076;52.354;4.970;2023-03-15T01:13:33;101209.47;;;4.84;100.00
54172;BME280;40076;52.354;4.970;2023-03-15T01:15:59;101214.81;;;4.84;100.00
54172;BME280;40076;52.354;4.970;2023-03-15T01:18:24;101212.94;;;4.85;100.00
54172;BME280;40076;52.354;4.970;2023-03-15T01:20:50;101217.50;;;4.84;100.00
54172;BME280;40076;52.354;4.970;2023-03-15T01:23:15;101212.66;;;4.81;100.00
54172;BME280;40076;52.354;4.970;2023-03-15T01:25:41;101219.13;;;4.80;100.00
54172;BME280;40076;52.354;4.970;2023-03-15T01:28:06;101219.91;;;4.81;100.00
54172;BME280;40076;52.354;4.970;2023-03-15T01:30:32;101223.38;;;4.81;100.00
54172;BME280;40076;52.354;4.970;2023-03-15T01:32:58;101237.88;;;4.80;100.00
54172;BME280;40076;52.354;4.970;2023-03-15T01:35:23;101237.06;;;4.80;100.00
54172;BME280;40076;52.354;4.970;2023-03-15T01:37:49;101237.31;;;4.78;100.00
54172;BME280;40076;52.354;4.970;2023-03-15T01:40:15;101248.03;;;4.78;100.00
54172;BME280;40076;52.354;4.970;2023-03-15T01:43:22;101241.88;;;4.78;100.00
54172;BME280;40076;52.354;4.970;2023-03-15T01:46:30;101247.22;;;4.78;100.00
54172;BME280;40076;52.354;4.970;2023-03-15T01:51:31;101246.69;;;4.76;100.00
54172;BME280;40076;52.354;4.970;2023-03-15T01:56:51;101262.75;;;4.76;100.00
54172;BME280;40076;52.354;4.970;2023-03-15T01:59:24;101269.16;;;4.75;100.00
54172;BME280;40076;52.354;4.970;2023-03-15T02:01:52;101272.66;;;4.75;100.00
54172;BME280;40076;52.354;4.970;2023-03-15T02:04:23;101265.44;;;4.76;100.00
54172;BME280;40076;52.354;4.970;2023-03-15T02:06:51;101273.47;;;4.76;100.00
54172;BME280;40076;52.354;4.970;2023-03-15T02:09:26;101271.84;;;4.75;100.00
54172;BME280;40076;52.354;4.970;2023-03-15T02:11:56;101282.56;;;4.75;100.00
54172;BME280;40076;52.354;4.970;2023-03-15T02:14:22;101281.75;;;4.74;100.00
54172;BME280;40076;52.354;4.970;2023-03-15T02:16:48;101284.44;;;4.74;100.00
54172;BME280;40076;52.354;4.970;2023-03-15T02:22:15;101294.06;;;4.75;100.00
54172;BME280;40076;52.354;4.970;2023-03-15T02:24:54;101293.53;;;4.73;100.00
54172;BME280;40076;52.354;4.970;2023-03-15T02:27:31;101288.97;;;4.74;100.00
54172;BME280;40076;52.354;4.970;2023-03-15T02:29:59;101294.63;;;4.72;100.00
54172;BME280;40076;52.354;4.970;2023-03-15T02:32:27;101304.25;;;4.73;100.00
54172;BME280;40076;52.354;4.970;2023-03-15T02:34:53;101297.31;;;4.72;100.00
54172;BME280;40076;52.354;4.970;2023-03-15T02:37:18;101304.25;;;4.73;100.00
54172;BME280;40076;52.354;4.970;2023-03-15T02:39:43;101305.34;;;4.72;100.00
54172;BME280;40076;52.354;4.970;2023-03-15T02:42:09;101309.59;;;4.73;100.00
54172;BME280;40076;52.354;4.970;2023-03-15T02:44:36;101317.91;;;4.72;100.00
54172;BME280;40076;52.354;4.970;2023-03-15T02:47:10;101310.16;;;4.70;100.00
54172;BME280;40076;52.354;4.970;2023-03-15T02:49:40;101316.31;;;4.71;100.00
54172;BME280;40076;52.354;4.970;2023-03-15T02:52:07;101315.22;;;4.72;100.00
54172;BME280;40076;52.354;4.970;2023-03-15T02:54:33;101325.13;;;4.71;100.00
54172;BME280;40076;52.354;4.970;2023-03-15T02:56:59;101324.34;;;4.71;100.00
54172;BME280;40076;52.354;4.970;2023-03-15T02:59:25;101324.59;;;4.69;100.00
54172;BME280;40076;52.354;4.970;2023-03-15T03:01:51;101333.44;;;4.70;100.00
54172;BME280;40076;52.354;4.970;2023-03-15T03:04:16;101335.31;;;4.69;100.00
54172;BME280;40076;52.354;4.970;2023-03-15T03:06:41;101340.66;;;4.69;100.00
54172;BME280;40076;52.354;4.970;2023-03-15T03:09:08;101348.13;;;4.67;100.00
54172;BME280;40076;52.354;4.970;2023-03-15T03:11:34;101350.56;;;4.69;100.00
54172;BME280;40076;52.354;4.970;2023-03-15T03:13:59;101352.69;;;4.66;100.00
54172;BME280;40076;52.354;4.970;2023-03-15T03:16:24;101357.25;;;4.66;100.00
54172;BME280;40076;52.354;4.970;2023-03-15T03:18:49;101364.47;;;4.65;100.00
54172;BME280;40076;52.354;4.970;2023-03-15T03:21:15;101367.13;;;4.65;100.00
54172;BME280;40076;52.354;4.970;2023-03-15T03:23:40;101374.66;;;4.63;100.00
54172;BME280;40076;52.354;4.970;2023-03-15T03:26:13;101375.72;;;4.62;100.00
54172;BME280;40076;52.354;4.970;2023-03-15T03:28:41;101387.50;;;4.61;100.00
54172;BME280;40076;52.354;4.970;2023-03-15T03:31:17;101394.97;;;4.59;100.00
54172;BME280;40076;52.354;4.970;2023-03-15T03:33:43;101385.88;;;4.60;100.00
54172;BME280;40076;52.354;4.970;2023-03-15T03:36:08;101398.47;;;4.60;100.00
54172;BME280;40076;52.354;4.970;2023-03-15T03:38:38;101401.13;;;4.60;100.00
54172;BME280;40076;52.354;4.970;2023-03-15T03:41:04;101413.72;;;4.59;100.00
54172;BME280;40076;52.354;4.970;2023-03-15T03:43:29;101410.22;;;4.59;100.00
54172;BME280;40076;52.354;4.970;2023-03-15T03:45:54;101419.06;;;4.59;100.00
54172;BME280;40076;52.354;4.970;2023-03-15T03:48:20;101420.13;;;4.58;100.00
54172;BME280;40076;52.354;4.970;2023-03-15T03:50:45;101432.69;;;4.58;100.00
54172;BME280;40076;52.354;4.970;2023-03-15T03:53:10;101435.38;;;4.58;100.00
54172;BME280;40076;52.354;4.970;2023-03-15T03:55:36;101432.69;;;4.58;100.00
54172;BME280;40076;52.354;4.970;2023-03-15T03:58:02;101424.97;;;4.56;100.00
54172;BME280;40076;52.354;4.970;2023-03-15T04:00:27;101429.75;;;4.54;100.00
54172;BME280;40076;52.354;4.970;2023-03-15T04:02:53;101435.13;;;4.54;100.00
54172;BME280;40076;52.354;4.970;2023-03-15T04:05:18;101441.53;;;4.53;100.00
54172;BME280;40076;52.354;4.970;2023-03-15T04:07:44;101441.53;;;4.53;100.00
54172;BME280;40076;52.354;4.970;2023-03-15T04:10:10;101453.31;;;4.52;100.00
54172;BME280;40076;52.354;4.970;2023-03-15T04:12:40;101448.22;;;4.51;100.00
54172;BME280;40076;52.354;4.970;2023-03-15T04:15:06;101446.63;;;4.50;100.00
54172;BME280;40076;52.354;4.970;2023-03-15T04:17:31;101458.41;;;4.49;100.00
54172;BME280;40076;52.354;4.970;2023-03-15T04:19:56;101456.78;;;4.48;100.00
54172;BME280;40076;52.354;4.970;2023-03-15T04:22:23;101460.78;;;4.45;100.00
54172;BME280;40076;52.354;4.970;2023-03-15T04:24:48;101472.53;;;4.44;100.00
54172;BME280;40076;52.354;4.970;2023-03-15T04:27:15;101483.78;;;4.41;100.00
54172;BME280;40076;52.354;4.970;2023-03-15T04:29:41;101486.16;;;4.38;100.00
54172;BME280;40076;52.354;4.970;2023-03-15T04:32:08;101491.50;;;4.38;100.00
54172;BME280;40076;52.354;4.970;2023-03-15T04:34:33;101504.63;;;4.34;100.00
54172;BME280;40076;52.354;4.970;2023-03-15T04:37:03;101507.56;;;4.33;100.00
54172;BME280;40076;52.354;4.970;2023-03-15T04:39:30;101512.09;;;4.32;100.00
54172;BME280;40076;52.354;4.970;2023-03-15T04:41:55;101512.09;;;4.32;100.00
54172;BME280;40076;52.354;4.970;2023-03-15T04:44:20;101526.28;;;4.33;100.00
54172;BME280;40076;52.354;4.970;2023-03-15T04:46:46;101527.34;;;4.32;100.00
54172;BME280;40076;52.354;4.970;2023-03-15T04:49:11;101535.38;;;4.32;100.00
54172;BME280;40076;52.354;4.970;2023-03-15T04:51:36;101531.88;;;4.31;100.00
54172;BME280;40076;52.354;4.970;2023-03-15T04:54:02;101542.59;;;4.31;100.00
54172;BME280;40076;52.354;4.970;2023-03-15T04:56:28;101551.69;;;4.30;100.00
54172;BME280;40076;52.354;4.970;2023-03-15T04:58:54;101557.03;;;4.30;100.00
54172;BME280;40076;52.354;4.970;2023-03-15T05:01:22;101565.31;;;4.28;100.00
54172;BME280;40076;52.354;4.970;2023-03-15T05:03:49;101563.97;;;4.26;100.00
54172;BME280;40076;52.354;4.970;2023-03-15T05:06:15;101570.38;;;4.25;100.00
54172;BME280;40076;52.354;4.970;2023-03-15T05:08:40;101583.19;;;4.23;100.00
54172;BME280;40076;52.354;4.970;2023-03-15T05:11:05;101573.28;;;4.18;100.00
54172;BME280;40076;52.354;4.970;2023-03-15T05:13:31;101575.16;;;4.18;100.00
54172;BME280;40076;52.354;4.970;2023-03-15T05:15:56;101585.56;;;4.14;100.00
54172;BME280;40076;52.354;4.970;2023-03-15T05:18:22;101584.72;;;4.09;100.00
54172;BME280;40076;52.354;4.970;2023-03-15T05:20:48;101589.75;;;4.05;100.00
54172;BME280;40076;52.354;4.970;2023-03-15T05:23:13;101581.47;;;4.02;100.00
54172;BME280;40076;52.354;4.970;2023-03-15T05:25:38;101578.47;;;3.98;100.00
54172;BME280;40076;52.354;4.970;2023-03-15T05:28:04;101575.28;;;3.96;100.00
54172;BME280;40076;52.354;4.970;2023-03-15T05:30:30;101579.00;;;3.95;100.00
54172;BME280;40076;52.354;4.970;2023-03-15T05:32:56;101578.19;;;3.95;100.00
54172;BME280;40076;52.354;4.970;2023-03-15T05:35:21;101568.56;;;3.94;100.00
54172;BME280;40076;52.354;4.970;2023-03-15T05:37:50;101575.53;;;3.95;100.00
54172;BME280;40076;52.354;4.970;2023-03-15T05:40:16;101575.78;;;3.93;100.00
54172;BME280;40076;52.354;4.970;2023-03-15T05:42:41;101574.97;;;3.93;100.00
54172;BME280;40076;52.354;4.970;2023-03-15T05:45:07;101583.00;;;3.93;100.00
54172;BME280;40076;52.354;4.970;2023-03-15T05:47:32;101590.19;;;3.92;100.00
54172;BME280;40076;52.354;4.970;2023-03-15T05:49:57;101587.78;;;3.91;100.00
54172;BME280;40076;52.354;4.970;2023-03-15T05:52:23;101585.38;;;3.89;100.00
54172;BME280;40076;52.354;4.970;2023-03-15T05:54:48;101590.97;;;3.87;100.00
54172;BME280;40076;52.354;4.970;2023-03-15T05:57:14;101599.00;;;3.87;100.00
54172;BME280;40076;52.354;4.970;2023-03-15T05:59:39;101603.53;;;3.87;100.00
54172;BME280;40076;52.354;4.970;2023-03-15T06:02:04;101608.06;;;3.86;100.00
54172;BME280;40076;52.354;4.970;2023-03-15T06:04:30;101609.38;;;3.84;100.00
54172;BME280;40076;52.354;4.970;2023-03-15T06:06:55;101621.13;;;3.83;100.00
54172;BME280;40076;52.354;4.970;2023-03-15T06:09:20;101616.03;;;3.81;100.00
54172;BME280;40076;52.354;4.970;2023-03-15T06:11:46;101632.06;;;3.81;100.00
54172;BME280;40076;52.354;4.970;2023-03-15T06:14:11;101628.63;;;3.81;100.00
54172;BME280;40076;52.354;4.970;2023-03-15T06:16:36;101627.00;;;3.80;100.00
54172;BME280;40076;52.354;4.970;2023-03-15T06:19:02;101632.59;;;3.78;100.00
54172;BME280;40076;52.354;4.970;2023-03-15T06:21:27;101639.00;;;3.77;100.00
54172;BME280;40076;52.354;4.970;2023-03-15T06:23:52;101643.53;;;3.77;100.00
54172;BME280;40076;52.354;4.970;2023-03-15T06:26:18;101646.47;;;3.75;100.00
54172;BME280;40076;52.354;4.970;2023-03-15T06:28:43;101652.06;;;3.74;100.00
54172;BME280;40076;52.354;4.970;2023-03-15T06:31:10;101659.28;;;3.73;100.00
54172;BME280;40076;52.354;4.970;2023-03-15T06:33:37;101663.84;;;3.73;100.00
54172;BME280;40076;52.354;4.970;2023-03-15T06:36:02;101664.88;;;3.72;100.00
54172;BME280;40076;52.354;4.970;2023-03-15T06:38:28;101668.38;;;3.72;100.00
54172;BME280;40076;52.354;4.970;2023-03-15T06:40:55;101672.66;;;3.73;100.00
54172;BME280;40076;52.354;4.970;2023-03-15T06:43:23;101671.03;;;3.72;100.00
54172;BME280;40076;52.354;4.970;2023-03-15T06:45:48;101676.13;;;3.74;100.00
54172;BME280;40076;52.354;4.970;2023-03-15T06:48:14;101678.53;;;3.75;100.00
54172;BME280;40076;52.354;4.970;2023-03-15T06:50:39;101683.88;;;3.75;100.00
54172;BME280;40076;52.354;4.970;2023-03-15T06:53:05;101690.84;;;3.76;100.00
54172;BME280;40076;52.354;4.970;2023-03-15T06:55:30;101689.22;;;3.75;100.00
54172;BME280;40076;52.354;4.970;2023-03-15T06:57:55;101685.50;;;3.76;100.00
54172;BME280;40076;52.354;4.970;2023-03-15T07:00:21;101691.66;;;3.77;100.00
54172;BME280;40076;52.354;4.970;2023-03-15T07:02:47;101691.66;;;3.77;100.00
54172;BME280;40076;52.354;4.970;2023-03-15T07:05:12;101701.28;;;3.78;100.00
54172;BME280;40076;52.354;4.970;2023-03-15T07:07:37;101705.84;;;3.77;100.00
54172;BME280;40076;52.354;4.970;2023-03-15T07:10:03;101704.78;;;3.78;100.00
54172;BME280;40076;52.354;4.970;2023-03-15T07:12:28;101700.00;;;3.80;100.00
54172;BME280;40076;52.354;4.970;2023-03-15T07:14:54;101708.81;;;3.81;100.00
54172;BME280;40076;52.354;4.970;2023-03-15T07:17:19;101715.75;;;3.82;100.00
54172;BME280;40076;52.354;4.970;2023-03-15T07:19:44;101713.66;;;3.84;100.00
54172;BME280;40076;52.354;4.970;2023-03-15T07:22:09;101722.22;;;3.86;100.00
54172;BME280;40076;52.354;4.970;2023-03-15T07:24:35;101723.03;;;3.86;100.00
54172;BME280;40076;52.354;4.970;2023-03-15T07:27:00;101726.28;;;3.88;100.00
54172;BME280;40076;52.354;4.970;2023-03-15T07:29:25;101737.50;;;3.91;100.00
54172;BME280;40076;52.354;4.970;2023-03-15T07:31:53;101734.84;;;3.91;100.00
54172;BME280;40076;52.354;4.970;2023-03-15T07:34:18;101733.53;;;3.93;100.00
54172;BME280;40076;52.354;4.970;2023-03-15T07:36:43;101738.38;;;3.96;100.00
54172;BME280;40076;52.354;4.970;2023-03-15T07:39:09;101738.09;;;3.98;100.00
54172;BME280;40076;52.354;4.970;2023-03-15T07:41:34;101737.88;;;3.99;100.00
54172;BME280;40076;52.354;4.970;2023-03-15T07:44:00;101750.19;;;4.00;100.00
54172;BME280;40076;52.354;4.970;2023-03-15T07:46:25;101752.84;;;4.00;100.00
54172;BME280;40076;52.354;4.970;2023-03-15T07:48:50;101761.19;;;4.04;100.00
54172;BME280;40076;52.354;4.970;2023-03-15T07:51:16;101766.25;;;4.05;100.00
54172;BME280;40076;52.354;4.970;2023-03-15T07:53:41;101771.38;;;4.07;100.00
54172;BME280;40076;52.354;4.970;2023-03-15T07:56:06;101770.31;;;4.08;100.00
54172;BME280;40076;52.354;4.970;2023-03-15T07:58:31;101778.66;;;4.11;100.00
54172;BME280;40076;52.354;4.970;2023-03-15T08:00:57;101779.47;;;4.12;100.00
54172;BME280;40076;52.354;4.970;2023-03-15T08:03:23;101775.47;;;4.14;100.00
54172;BME280;40076;52.354;4.970;2023-03-15T08:05:50;101777.88;;;4.16;100.00
54172;BME280;40076;52.354;4.970;2023-03-15T08:08:16;101787.28;;;4.18;100.00
54172;BME280;40076;52.354;4.970;2023-03-15T08:10:43;101776.31;;;4.20;100.00
54172;BME280;40076;52.354;4.970;2023-03-15T08:13:09;101787.56;;;4.22;100.00
54172;BME280;40076;52.354;4.970;2023-03-15T08:15:35;101790.00;;;4.23;100.00
54172;BME280;40076;52.354;4.970;2023-03-15T08:18:00;101790.56;;;4.25;100.00
54172;BME280;40076;52.354;4.970;2023-03-15T08:20:27;101797.53;;;4.26;100.00
54172;BME280;40076;52.354;4.970;2023-03-15T08:22:52;101803.41;;;4.28;100.00
54172;BME280;40076;52.354;4.970;2023-03-15T08:25:22;101806.66;;;4.31;100.00
54172;BME280;40076;52.354;4.970;2023-03-15T08:27:49;101809.09;;;4.32;100.00
54172;BME280;40076;52.354;4.970;2023-03-15T08:30:15;101806.97;;;4.34;100.00
54172;BME280;40076;52.354;4.970;2023-03-15T08:32:43;101816.34;;;4.37;100.00
54172;BME280;40076;52.354;4.970;2023-03-15T08:35:10;101815.59;;;4.41;100.00
54172;BME280;40076;52.354;4.970;2023-03-15T08:37:39;101818.00;;;4.43;100.00
54172;BME280;40076;52.354;4.970;2023-03-15T08:40:06;101816.69;;;4.45;100.00
54172;BME280;40076;52.354;4.970;2023-03-15T08:42:36;101826.09;;;4.48;100.00
54172;BME280;40076;52.354;4.970;2023-03-15T08:45:03;101820.22;;;4.51;100.00
54172;BME280;40076;52.354;4.970;2023-03-15T08:47:29;101820.53;;;4.54;100.00
54172;BME280;40076;52.354;4.970;2023-03-15T08:49:54;101820.81;;;4.58;100.00
54172;BME280;40076;52.354;4.970;2023-03-15T08:52:20;101827.53;;;4.60;100.00
54172;BME280;40076;52.354;4.970;2023-03-15T08:54:46;101826.22;;;4.63;100.00
54172;BME280;40076;52.354;4.970;2023-03-15T08:57:12;101823.03;;;4.66;100.00
54172;BME280;40076;52.354;4.970;2023-03-15T08:59:38;101826.00;;;4.70;100.00
54172;BME280;40076;52.354;4.970;2023-03-15T09:02:04;101825.75;;;4.71;100.00
54172;BME280;40076;52.354;4.970;2023-03-15T09:04:30;101827.91;;;4.74;100.00
54172;BME280;40076;52.354;4.970;2023-03-15T09:06:56;101826.34;;;4.78;100.00
54172;BME280;40076;52.354;4.970;2023-03-15T09:09:21;101822.09;;;4.82;100.00
54172;BME280;40076;52.354;4.970;2023-03-15T09:11:46;101827.75;;;4.86;100.00
54172;BME280;40076;52.354;4.970;2023-03-15T09:14:11;101814.63;;;4.89;100.00
54172;BME280;40076;52.354;4.970;2023-03-15T09:16:37;101822.19;;;4.92;100.00
54172;BME280;40076;52.354;4.970;2023-03-15T09:19:02;101826.22;;;4.95;100.00
54172;BME280;40076;52.354;4.970;2023-03-15T09:21:28;101820.34;;;4.98;100.00
54172;BME280;40076;52.354;4.970;2023-03-15T09:23:53;101823.31;;;5.01;100.00
54172;BME280;40076;52.354;4.970;2023-03-15T09:26:18;101814.75;;;5.04;100.00
54172;BME280;40076;52.354;4.970;2023-03-15T09:28:44;101817.72;;;5.08;100.00
54172;BME280;40076;52.354;4.970;2023-03-15T09:31:09;101814.81;;;5.10;100.00
54172;BME280;40076;52.354;4.970;2023-03-15T09:33:35;101815.34;;;5.12;100.00
54172;BME280;40076;52.354;4.970;2023-03-15T09:36:01;101823.66;;;5.15;100.00
54172;BME280;40076;52.354;4.970;2023-03-15T09:38:26;101812.69;;;5.17;100.00
54172;BME280;40076;52.354;4.970;2023-03-15T09:40:58;101819.13;;;5.16;100.00
54172;BME280;40076;52.354;4.970;2023-03-15T09:48:55;101815.72;;;5.25;100.00
54172;BME280;40076;52.354;4.970;2023-03-15T09:53:59;101821.66;;;5.32;100.00
54172;BME280;40076;52.354;4.970;2023-03-15T09:56:38;101819.22;;;5.36;100.00
54172;BME280;40076;52.354;4.970;2023-03-15T09:59:05;101823.03;;;5.40;100.00
54172;BME280;40076;52.354;4.970;2023-03-15T10:01:34;101824.91;;;5.44;100.00
54172;BME280;40076;52.354;4.970;2023-03-15T10:04:17;101830.03;;;5.46;100.00
54172;BME280;40076;52.354;4.970;2023-03-15T10:06:52;101822.78;;;5.47;100.00
54172;BME280;40076;52.354;4.970;2023-03-15T10:09:21;101817.69;;;5.50;100.00
54172;BME280;40076;52.354;4.970;2023-03-15T10:17:32;101827.97;;;5.63;100.00
54172;BME280;40076;52.354;4.970;2023-03-15T10:20:07;101829.84;;;5.63;100.00
54172;BME280;40076;52.354;4.970;2023-03-15T10:27:48;101848.13;;;5.76;100.00
54172;BME280;40076;52.354;4.970;2023-03-15T10:30:18;101846.81;;;5.78;100.00
54172;BME280;40076;52.354;4.970;2023-03-15T10:32:53;101853.78;;;5.79;100.00
54172;BME280;40076;52.354;4.970;2023-03-15T10:35:20;101860.50;;;5.82;100.00
54172;BME280;40076;52.354;4.970;2023-03-15T10:37:46;101859.97;;;5.85;100.00
54172;BME280;40076;52.354;4.970;2023-03-15T10:40:12;101864.56;;;5.90;100.00
54172;BME280;40076;52.354;4.970;2023-03-15T10:42:41;101865.69;;;5.94;100.00
54172;BME280;40076;52.354;4.970;2023-03-15T10:45:20;101865.94;;;5.97;100.00
54172;BME280;40076;52.354;4.970;2023-03-15T10:47:47;101881.00;;;6.03;100.00
54172;BME280;40076;52.354;4.970;2023-03-15T10:50:30;101889.06;;;6.08;100.00
54172;BME280;40076;52.354;4.970;2023-03-15T10:52:58;101884.53;;;6.14;100.00
54172;BME280;40076;52.354;4.970;2023-03-15T10:55:41;101883.47;;;6.15;100.00
54172;BME280;40076;52.354;4.970;2023-03-15T10:58:20;101886.41;;;6.18;100.00
54172;BME280;40076;52.354;4.970;2023-03-15T11:00:53;101898.75;;;6.19;97.71
54172;BME280;40076;52.354;4.970;2023-03-15T11:03:24;101894.75;;;6.22;94.14
54172;BME280;40076;52.354;4.970;2023-03-15T11:05:52;101901.75;;;6.23;92.77
54172;BME280;40076;52.354;4.970;2023-03-15T11:08:20;101899.31;;;6.27;93.37
54172;BME280;40076;52.354;4.970;2023-03-15T11:10:54;101903.09;;;6.31;92.00
54172;BME280;40076;52.354;4.970;2023-03-15T11:13:24;101911.16;;;6.36;91.08
54172;BME280;40076;52.354;4.970;2023-03-15T11:16:11;101914.94;;;6.40;90.83
54172;BME280;40076;52.354;4.970;2023-03-15T11:18:50;101907.72;;;6.40;88.81
54172;BME280;40076;52.354;4.970;2023-03-15T11:21:23;101914.41;;;6.43;88.75
54172;BME280;40076;52.354;4.970;2023-03-15T11:23:50;101908.78;;;6.44;87.60
54172;BME280;40076;52.354;4.970;2023-03-15T11:26:22;101908.53;;;6.46;86.69
54172;BME280;40076;52.354;4.970;2023-03-15T11:29:32;101905.03;;;6.50;84.24
54172;BME280;40076;52.354;4.970;2023-03-15T11:31:38;101916.31;;;6.52;83.64
54172;BME280;40076;52.354;4.970;2023-03-15T11:34:25;101918.19;;;6.57;84.69
54172;BME280;40076;52.354;4.970;2023-03-15T11:36:59;101924.38;;;6.57;82.47
54172;BME280;40076;52.354;4.970;2023-03-15T11:39:35;101920.63;;;6.58;81.26
54172;BME280;40076;52.354;4.970;2023-03-15T11:42:07;101920.38;;;6.60;80.80
54172;BME280;40076;52.354;4.970;2023-03-15T11:44:48;101914.72;;;6.62;81.74
54172;BME280;40076;52.354;4.970;2023-03-15T11:47:41;101916.06;;;6.64;81.60
54172;BME280;40076;52.354;4.970;2023-03-15T11:50:12;101921.97;;;6.66;80.22
54172;BME280;40076;52.354;4.970;2023-03-15T11:52:38;101921.97;;;6.66;79.27
54172;BME280;40076;52.354;4.970;2023-03-15T11:55:04;101920.09;;;6.67;79.21
54172;BME280;40076;52.354;4.970;2023-03-15T11:57:44;101917.97;;;6.69;76.10
54172;BME280;40076;52.354;4.970;2023-03-15T12:02:52;101917.44;;;6.77;77.73
54172;BME280;40076;52.354;4.970;2023-03-15T12:05:51;101926.31;;;6.82;78.42
54172;BME280;40076;52.354;4.970;2023-03-15T12:10:46;101921.47;;;6.89;77.85
54172;BME280;40076;52.354;4.970;2023-03-15T12:13:37;101930.06;;;6.96;77.63
54172;BME280;40076;52.354;4.970;2023-03-15T12:16:14;101925.25;;;6.98;77.36
54172;BME280;40076;52.354;4.970;2023-03-15T12:18:44;101927.69;;;7.00;76.83
54172;BME280;40076;52.354;4.970;2023-03-15T12:21:17;101928.47;;;7.06;76.50
54172;BME280;40076;52.354;4.970;2023-03-15T12:23:59;101923.66;;;7.08;75.67
54172;BME280;40076;52.354;4.970;2023-03-15T12:26:39;101926.06;;;7.09;74.08
54172;BME280;40076;52.354;4.970;2023-03-15T12:29:14;101928.75;;;7.14;73.74
54172;BME280;40076;52.354;4.970;2023-03-15T12:31:56;101927.13;;;7.18;73.71
54172;BME280;40076;52.354;4.970;2023-03-15T12:37:02;101930.66;;;7.24;72.10
54172;BME280;40076;52.354;4.970;2023-03-15T12:39:41;101925.25;;;7.29;71.19
54172;BME280;40076;52.354;4.970;2023-03-15T12:47:45;101919.88;;;7.34;69.43
54172;BME280;40076;52.354;4.970;2023-03-15T12:51:03;101916.91;;;7.41;70.66
54172;BME280;40076;52.354;4.970;2023-03-15T12:53:35;101916.38;;;7.44;70.47
54172;BME280;40076;52.354;4.970;2023-03-15T12:56:27;101903.72;;;7.49;70.63
54172;BME280;40076;52.354;4.970;2023-03-15T12:58:57;101912.59;;;7.50;68.94
54172;BME280;40076;52.354;4.970;2023-03-15T13:01:26;101905.06;;;7.52;68.54
54172;BME280;40076;52.354;4.970;2023-03-15T13:03:56;101901.03;;;7.54;68.32
54172;BME280;40076;52.354;4.970;2023-03-15T13:06:36;101895.63;;;7.59;68.76
54172;BME280;40076;52.354;4.970;2023-03-15T13:09:41;101895.59;;;7.64;69.42
54172;BME280;40076;52.354;4.970;2023-03-15T13:12:22;101885.94;;;7.68;70.05
54172;BME280;40076;52.354;4.970;2023-03-15T13:17:46;101886.69;;;7.79;68.41
54172;BME280;40076;52.354;4.970;2023-03-15T13:23:14;101891.00;;;7.85;68.57
54172;BME280;40076;52.354;4.970;2023-03-15T13:28:24;101878.59;;;7.89;68.15
54172;BME280;40076;52.354;4.970;2023-03-15T13:30:53;101888.50;;;7.94;68.21
54172;BME280;40076;52.354;4.970;2023-03-15T13:33:31;101890.66;;;7.97;65.43
54172;BME280;40076;52.354;4.970;2023-03-15T13:35:57;101884.75;;;8.00;64.64
54172;BME280;40076;52.354;4.970;2023-03-15T13:38:30;101891.75;;;8.01;63.11
54172;BME280;40076;52.354;4.970;2023-03-15T13:41:02;101896.56;;;8.04;62.88
54172;BME280;40076;52.354;4.970;2023-03-15T13:43:35;101887.94;;;8.07;63.63
54172;BME280;40076;52.354;4.970;2023-03-15T13:46:02;101891.69;;;8.11;63.89
54172;BME280;40076;52.354;4.970;2023-03-15T13:48:29;101895.97;;;8.12;62.35